TimeEDT,TemperatureF,Dew PointF,Humidity,Sea Level PressureIn,VisibilityMPH,Wind Direction,Wind SpeedMPH,Gust SpeedMPH,PrecipitationIn,Events,Conditions,WindDirDegrees,DateUTC
12:53 AM,52.0,43.0,71,29.57,10.0,West,8.1,-,N/A,,Overcast,280,2012-11-02 04:53:00
1:53 AM,51.1,43.0,74,29.57,10.0,WNW,5.8,-,N/A,,Overcast,290,2012-11-02 05:53:00
2:53 AM,51.1,42.1,71,29.57,10.0,WNW,5.8,-,N/A,,Overcast,290,2012-11-02 06:53:00
3:53 AM,50.0,43.0,77,29.57,10.0,WNW,9.2,-,N/A,,Overcast,300,2012-11-02 07:53:00
4:53 AM,50.0,43.0,77,29.57,10.0,WNW,6.9,-,N/A,,Overcast,300,2012-11-02 08:53:00
5:53 AM,50.0,43.0,77,29.57,10.0,WNW,6.9,-,N/A,,Overcast,290,2012-11-02 09:53:00
6:53 AM,48.9,44.1,83,29.57,10.0,Calm,Calm,-,N/A,,Overcast,0,2012-11-02 10:53:00
7:53 AM,50.0,44.1,80,29.57,10.0,West,3.5,-,0.00,Rain,Light Rain,280,2012-11-02 11:53:00
8:18 AM,50.0,44.6,82,29.57,10.0,Calm,Calm,-,0.00,Rain,Light Rain,0,2012-11-02 12:18:00
8:53 AM,50.0,45.0,83,29.58,10.0,Calm,Calm,-,0.00,Rain,Light Rain,0,2012-11-02 12:53:00
9:48 AM,50.0,46.4,87,29.58,10.0,WNW,3.5,-,0.00,Rain,Light Rain,290,2012-11-02 13:48:00
9:53 AM,50.0,46.0,86,29.58,10.0,WNW,3.5,-,0.00,Rain,Light Rain,290,2012-11-02 13:53:00
10:53 AM,51.1,46.9,86,29.57,10.0,WNW,3.5,-,0.01,,Overcast,300,2012-11-02 14:53:00
11:53 AM,51.1,46.0,83,29.57,10.0,West,4.6,-,0.00,,Overcast,280,2012-11-02 15:53:00
12:24 PM,51.8,46.4,82,29.55,10.0,West,4.6,-,N/A,,Overcast,280,2012-11-02 16:24:00
12:53 PM,52.0,46.0,80,29.55,10.0,WNW,8.1,-,0.00,,Overcast,290,2012-11-02 16:53:00
1:53 PM,52.0,43.0,71,29.54,10.0,WNW,4.6,-,0.00,,Overcast,300,2012-11-02 17:53:00
2:09 PM,53.6,44.6,72,29.54,10.0,WNW,8.1,-,N/A,,Overcast,300,2012-11-02 18:09:00
2:50 PM,51.8,41.0,67,29.54,10.0,West,11.5,-,N/A,,Overcast,270,2012-11-02 18:50:00
2:53 PM,52.0,41.0,66,29.54,10.0,West,10.4,-,N/A,,Overcast,280,2012-11-02 18:53:00
3:53 PM,52.0,39.0,61,29.54,10.0,WNW,11.5,-,N/A,,Overcast,290,2012-11-02 19:53:00
4:53 PM,51.1,39.0,63,29.55,10.0,WNW,11.5,-,N/A,,Mostly Cloudy,300,2012-11-02 20:53:00
5:53 PM,50.0,37.9,63,29.57,10.0,WNW,10.4,-,N/A,,Overcast,300,2012-11-02 21:53:00
6:53 PM,50.0,39.0,66,29.57,10.0,NW,10.4,-,N/A,,Overcast,320,2012-11-02 22:53:00
7:53 PM,48.9,39.0,69,29.58,10.0,NW,9.2,-,N/A,,Overcast,320,2012-11-02 23:53:00
8:53 PM,48.9,37.9,66,29.58,10.0,NW,10.4,-,N/A,,Scattered Clouds,310,2012-11-03 00:53:00
9:53 PM,48.9,36.0,61,29.58,10.0,NW,12.7,20.7,N/A,,Clear,310,2012-11-03 01:53:00
10:53 PM,48.0,36.0,63,29.60,10.0,NNW,10.4,-,N/A,,Partly Cloudy,330,2012-11-03 02:53:00
11:53 PM,48.0,37.0,66,29.60,10.0,NNW,13.8,20.7,N/A,,Partly Cloudy,330,2012-11-03 03:53:00